sensor_id;sensor_type;location;lat;lon;timestamp;P1;durP1;ratioP1;P2;durP2;ratioP2
15142;SDS011;7672;50.834;6.286;2023-05-19T00:01:23;8.90;;;4.50;;
15142;SDS011;7672;50.834;6.286;2023-05-19T00:03:51;7.83;;;3.90;;
15142;SDS011;7672;50.834;6.286;2023-05-19T00:06:23;6.77;;;4.70;;
15142;SDS011;7672;50.834;6.286;2023-05-19T00:08:56;6.20;;;4.43;;
15142;SDS011;7672;50.834;6.286;2023-05-19T00:11:27;4.57;;;4.17;;
15142;SDS011;7672;50.834;6.286;2023-05-19T00:13:55;5.03;;;3.60;;
15142;SDS011;7672;50.834;6.286;2023-05-19T00:16:25;10.43;;;4.40;;
15142;SDS011;7672;50.834;6.286;2023-05-19T00:18:54;6.50;;;4.07;;
15142;SDS011;7672;50.834;6.286;2023-05-19T00:21:23;12.67;;;5.10;;
15142;SDS011;7672;50.834;6.286;2023-05-19T00:23:50;7.40;;;4.17;;
15142;SDS011;7672;50.834;6.286;2023-05-19T00:26:18;7.60;;;4.27;;
15142;SDS011;7672;50.834;6.286;2023-05-19T00:28:53;8.50;;;4.13;;
15142;SDS011;7672;50.834;6.286;2023-05-19T00:31:20;7.67;;;4.13;;
15142;SDS011;7672;50.834;6.286;2023-05-19T00:33:48;11.23;;;4.60;;
15142;SDS011;7672;50.834;6.286;2023-05-19T00:36:15;7.17;;;4.97;;
15142;SDS011;7672;50.834;6.286;2023-05-19T00:38:42;9.23;;;4.67;;
15142;SDS011;7672;50.834;6.286;2023-05-19T00:41:09;11.00;;;3.80;;
15142;SDS011;7672;50.834;6.286;2023-05-19T00:43:36;10.73;;;4.10;;
15142;SDS011;7672;50.834;6.286;2023-05-19T00:46:03;8.77;;;4.33;;
15142;SDS011;7672;50.834;6.286;2023-05-19T00:48:30;4.57;;;3.80;;
15142;SDS011;7672;50.834;6.286;2023-05-19T00:50:57;6.33;;;3.93;;
15142;SDS011;7672;50.834;6.286;2023-05-19T00:53:30;6.40;;;4.00;;
15142;SDS011;7672;50.834;6.286;2023-05-19T00:55:59;9.43;;;4.20;;
15142;SDS011;7672;50.834;6.286;2023-05-19T00:58:28;5.60;;;3.70;;
15142;SDS011;7672;50.834;6.286;2023-05-19T01:00:58;5.90;;;4.07;;
15142;SDS011;7672;50.834;6.286;2023-05-19T01:03:31;8.43;;;4.30;;
15142;SDS011;7672;50.834;6.286;2023-05-19T01:06:01;7.47;;;3.60;;
15142;SDS011;7672;50.834;6.286;2023-05-19T01:08:33;4.47;;;3.60;;
15142;SDS011;7672;50.834;6.286;2023-05-19T01:11:06;9.67;;;3.70;;
15142;SDS011;7672;50.834;6.286;2023-05-19T01:13:33;6.47;;;3.80;;
15142;SDS011;7672;50.834;6.286;2023-05-19T01:16:03;8.27;;;3.87;;
15142;SDS011;7672;50.834;6.286;2023-05-19T01:18:54;5.10;;;3.87;;
15142;SDS011;7672;50.834;6.286;2023-05-19T01:21:58;6.17;;;4.13;;
15142;SDS011;7672;50.834;6.286;2023-05-19T01:24:35;5.37;;;3.80;;
15142;SDS011;7672;50.834;6.286;2023-05-19T01:27:33;4.20;;;3.53;;
15142;SDS011;7672;50.834;6.286;2023-05-19T01:33:07;13.30;;;4.00;;
15142;SDS011;7672;50.834;6.286;2023-05-19T01:35:40;5.40;;;3.50;;
15142;SDS011;7672;50.834;6.286;2023-05-19T01:38:10;6.13;;;3.60;;
15142;SDS011;7672;50.834;6.286;2023-05-19T01:40:40;7.30;;;3.90;;
15142;SDS011;7672;50.834;6.286;2023-05-19T01:43:10;9.13;;;4.00;;
15142;SDS011;7672;50.834;6.286;2023-05-19T01:45:42;5.13;;;3.57;;
15142;SDS011;7672;50.834;6.286;2023-05-19T01:48:10;4.27;;;3.60;;
15142;SDS011;7672;50.834;6.286;2023-05-19T01:50:40;5.13;;;3.70;;
15142;SDS011;7672;50.834;6.286;2023-05-19T01:53:08;7.90;;;3.80;;
15142;SDS011;7672;50.834;6.286;2023-05-19T01:55:42;6.00;;;3.97;;
15142;SDS011;7672;50.834;6.286;2023-05-19T02:04:32;5.47;;;3.67;;
15142;SDS011;7672;50.834;6.286;2023-05-19T02:12:37;6.17;;;3.47;;
15142;SDS011;7672;50.834;6.286;2023-05-19T02:17:42;7.53;;;3.80;;
15142;SDS011;7672;50.834;6.286;2023-05-19T02:20:17;8.70;;;3.90;;
15142;SDS011;7672;50.834;6.286;2023-05-19T02:22:44;4.43;;;3.47;;
15142;SDS011;7672;50.834;6.286;2023-05-19T02:25:12;11.47;;;4.33;;
15142;SDS011;7672;50.834;6.286;2023-05-19T02:27:40;9.63;;;4.37;;
15142;SDS011;7672;50.834;6.286;2023-05-19T02:30:07;5.43;;;3.77;;
15142;SDS011;7672;50.834;6.286;2023-05-19T02:32:35;9.80;;;4.23;;
15142;SDS011;7672;50.834;6.286;2023-05-19T02:35:03;8.83;;;3.70;;
15142;SDS011;7672;50.834;6.286;2023-05-19T02:37:30;6.57;;;3.77;;
15142;SDS011;7672;50.834;6.286;2023-05-19T02:39:57;11.20;;;4.13;;
15142;SDS011;7672;50.834;6.286;2023-05-19T02:42:24;4.23;;;3.10;;
15142;SDS011;7672;50.834;6.286;2023-05-19T02:44:53;6.37;;;4.00;;
15142;SDS011;7672;50.834;6.286;2023-05-19T02:47:20;6.17;;;3.70;;
15142;SDS011;7672;50.834;6.286;2023-05-19T02:49:47;6.47;;;4.00;;
15142;SDS011;7672;50.834;6.286;2023-05-19T02:52:14;8.37;;;4.20;;
15142;SDS011;7672;50.834;6.286;2023-05-19T02:54:41;7.90;;;3.77;;
15142;SDS011;7672;50.834;6.286;2023-05-19T02:57:08;5.67;;;4.07;;
15142;SDS011;7672;50.834;6.286;2023-05-19T02:59:36;7.10;;;3.40;;
15142;SDS011;7672;50.834;6.286;2023-05-19T03:02:03;6.80;;;3.40;;
15142;SDS011;7672;50.834;6.286;2023-05-19T03:04:30;4.97;;;3.60;;
15142;SDS011;7672;50.834;6.286;2023-05-19T03:06:58;4.80;;;3.87;;
15142;SDS011;7672;50.834;6.286;2023-05-19T03:09:25;6.93;;;3.70;;
15142;SDS011;7672;50.834;6.286;2023-05-19T03:11:52;5.37;;;3.57;;
15142;SDS011;7672;50.834;6.286;2023-05-19T03:14:19;3.60;;;3.17;;
15142;SDS011;7672;50.834;6.286;2023-05-19T03:16:49;7.67;;;3.53;;
15142;SDS011;7672;50.834;6.286;2023-05-19T03:19:16;5.13;;;3.73;;
15142;SDS011;7672;50.834;6.286;2023-05-19T03:21:44;6.67;;;3.50;;
15142;SDS011;7672;50.834;6.286;2023-05-19T03:24:11;4.67;;;3.57;;
15142;SDS011;7672;50.834;6.286;2023-05-19T03:26:39;6.60;;;3.63;;
15142;SDS011;7672;50.834;6.286;2023-05-19T03:29:06;5.60;;;3.63;;
15142;SDS011;7672;50.834;6.286;2023-05-19T03:31:35;6.80;;;3.90;;
15142;SDS011;7672;50.834;6.286;2023-05-19T03:34:03;5.87;;;3.87;;
15142;SDS011;7672;50.834;6.286;2023-05-19T03:36:30;7.00;;;3.80;;
15142;SDS011;7672;50.834;6.286;2023-05-19T03:38:58;4.90;;;4.13;;
15142;SDS011;7672;50.834;6.286;2023-05-19T03:41:26;6.07;;;3.77;;
15142;SDS011;7672;50.834;6.286;2023-05-19T03:43:54;6.93;;;4.20;;
15142;SDS011;7672;50.834;6.286;2023-05-19T03:46:21;7.50;;;4.00;;
15142;SDS011;7672;50.834;6.286;2023-05-19T03:49:11;7.10;;;3.70;;
15142;SDS011;7672;50.834;6.286;2023-05-19T03:51:57;6.47;;;3.50;;
15142;SDS011;7672;50.834;6.286;2023-05-19T03:54:31;10.13;;;3.47;;
15142;SDS011;7672;50.834;6.286;2023-05-19T03:56:59;6.87;;;3.70;;
15142;SDS011;7672;50.834;6.286;2023-05-19T03:59:28;5.03;;;3.53;;
15142;SDS011;7672;50.834;6.286;2023-05-19T04:01:57;4.87;;;3.93;;
15142;SDS011;7672;50.834;6.286;2023-05-19T04:04:24;8.80;;;4.50;;
15142;SDS011;7672;50.834;6.286;2023-05-19T04:06:52;6.33;;;3.70;;
15142;SDS011;7672;50.834;6.286;2023-05-19T04:09:20;6.17;;;3.90;;
15142;SDS011;7672;50.834;6.286;2023-05-19T04:11:49;6.73;;;4.67;;
15142;SDS011;7672;50.834;6.286;2023-05-19T04:14:16;6.30;;;3.93;;
15142;SDS011;7672;50.834;6.286;2023-05-19T04:16:44;7.30;;;4.00;;
15142;SDS011;7672;50.834;6.286;2023-05-19T04:19:12;7.20;;;4.30;;
15142;SDS011;7672;50.834;6.286;2023-05-19T04:21:39;5.90;;;4.07;;
15142;SDS011;7672;50.834;6.286;2023-05-19T04:24:06;7.23;;;4.20;;
15142;SDS011;7672;50.834;6.286;2023-05-19T04:26:33;10.37;;;4.80;;
15142;SDS011;7672;50.834;6.286;2023-05-19T04:29:01;6.10;;;4.20;;
15142;SDS011;7672;50.834;6.286;2023-05-19T04:31:30;7.53;;;3.83;;
15142;SDS011;7672;50.834;6.286;2023-05-19T04:34:00;8.63;;;4.17;;
15142;SDS011;7672;50.834;6.286;2023-05-19T04:36:27;10.13;;;4.80;;
15142;SDS011;7672;50.834;6.286;2023-05-19T04:38:54;4.60;;;4.07;;
15142;SDS011;7672;50.834;6.286;2023-05-19T04:41:29;6.00;;;4.20;;
15142;SDS011;7672;50.834;6.286;2023-05-19T04:43:57;6.50;;;4.10;;
15142;SDS011;7672;50.834;6.286;2023-05-19T04:46:24;7.73;;;4.40;;
15142;SDS011;7672;50.834;6.286;2023-05-19T04:48:53;10.43;;;4.90;;
15142;SDS011;7672;50.834;6.286;2023-05-19T04:51:20;5.63;;;4.37;;
15142;SDS011;7672;50.834;6.286;2023-05-19T04:53:48;7.80;;;4.50;;
15142;SDS011;7672;50.834;6.286;2023-05-19T04:56:16;8.00;;;4.70;;
15142;SDS011;7672;50.834;6.286;2023-05-19T04:58:44;7.37;;;4.23;;
15142;SDS011;7672;50.834;6.286;2023-05-19T05:01:11;12.20;;;4.83;;
15142;SDS011;7672;50.834;6.286;2023-05-19T05:03:39;9.37;;;4.17;;
15142;SDS011;7672;50.834;6.286;2023-05-19T05:06:09;10.20;;;5.07;;
15142;SDS011;7672;50.834;6.286;2023-05-19T05:08:37;9.57;;;4.53;;
15142;SDS011;7672;50.834;6.286;2023-05-19T05:11:05;10.50;;;4.67;;
15142;SDS011;7672;50.834;6.286;2023-05-19T05:13:33;7.00;;;4.33;;
15142;SDS011;7672;50.834;6.286;2023-05-19T05:16:01;8.23;;;4.67;;
15142;SDS011;7672;50.834;6.286;2023-05-19T05:18:32;11.60;;;5.00;;
15142;SDS011;7672;50.834;6.286;2023-05-19T05:21:00;8.90;;;4.43;;
15142;SDS011;7672;50.834;6.286;2023-05-19T05:23:28;9.83;;;4.70;;
15142;SDS011;7672;50.834;6.286;2023-05-19T05:25:56;9.17;;;4.73;;
15142;SDS011;7672;50.834;6.286;2023-05-19T05:28:23;6.00;;;4.03;;
15142;SDS011;7672;50.834;6.286;2023-05-19T05:30:51;9.97;;;4.87;;
15142;SDS011;7672;50.834;6.286;2023-05-19T05:33:19;8.13;;;4.60;;
15142;SDS011;7672;50.834;6.286;2023-05-19T05:35:47;9.70;;;4.50;;
15142;SDS011;7672;50.834;6.286;2023-05-19T05:38:15;7.83;;;5.00;;
15142;SDS011;7672;50.834;6.286;2023-05-19T05:40:42;6.10;;;4.30;;
15142;SDS011;7672;50.834;6.286;2023-05-19T05:43:10;8.73;;;4.90;;
15142;SDS011;7672;50.834;6.286;2023-05-19T05:45:44;8.87;;;4.90;;
15142;SDS011;7672;50.834;6.286;2023-05-19T05:48:11;9.23;;;4.73;;
15142;SDS011;7672;50.834;6.286;2023-05-19T05:50:38;16.53;;;5.10;;
15142;SDS011;7672;50.834;6.286;2023-05-19T05:53:09;9.07;;;4.87;;
15142;SDS011;7672;50.834;6.286;2023-05-19T05:55:46;8.67;;;4.60;;
15142;SDS011;7672;50.834;6.286;2023-05-19T05:58:15;11.17;;;5.40;;
15142;SDS011;7672;50.834;6.286;2023-05-19T06:00:42;8.87;;;5.33;;
15142;SDS011;7672;50.834;6.286;2023-05-19T06:03:09;11.47;;;5.60;;
15142;SDS011;7672;50.834;6.286;2023-05-19T06:05:37;11.37;;;5.40;;
15142;SDS011;7672;50.834;6.286;2023-05-19T06:08:04;10.60;;;5.13;;
15142;SDS011;7672;50.834;6.286;2023-05-19T06:10:31;11.73;;;5.50;;
15142;SDS011;7672;50.834;6.286;2023-05-19T06:13:04;12.97;;;5.50;;
15142;SDS011;7672;50.834;6.286;2023-05-19T06:15:31;15.77;;;5.40;;
15142;SDS011;7672;50.834;6.286;2023-05-19T06:18:03;9.60;;;5.37;;
15142;SDS011;7672;50.834;6.286;2023-05-19T06:20:30;12.70;;;5.87;;
15142;SDS011;7672;50.834;6.286;2023-05-19T06:22:58;9.53;;;4.70;;
15142;SDS011;7672;50.834;6.286;2023-05-19T06:25:27;10.87;;;4.90;;
15142;SDS011;7672;50.834;6.286;2023-05-19T06:27:55;9.27;;;5.13;;
15142;SDS011;7672;50.834;6.286;2023-05-19T06:30:23;9.97;;;5.00;;
15142;SDS011;7672;50.834;6.286;2023-05-19T06:32:59;8.80;;;4.50;;
15142;SDS011;7672;50.834;6.286;2023-05-19T06:35:26;10.33;;;4.97;;
15142;SDS011;7672;50.834;6.286;2023-05-19T06:37:54;12.37;;;4.27;;
15142;SDS011;7672;50.834;6.286;2023-05-19T06:40:21;9.07;;;4.37;;
15142;SDS011;7672;50.834;6.286;2023-05-19T06:42:49;12.60;;;4.83;;
15142;SDS011;7672;50.834;6.286;2023-05-19T06:45:52;10.43;;;4.27;;
15142;SDS011;7672;50.834;6.286;2023-05-19T06:48:20;13.60;;;4.77;;
15142;SDS011;7672;50.834;6.286;2023-05-19T06:50:47;11.93;;;4.73;;
15142;SDS011;7672;50.834;6.286;2023-05-19T06:53:17;9.80;;;4.77;;
15142;SDS011;7672;50.834;6.286;2023-05-19T06:55:46;10.53;;;4.33;;
15142;SDS011;7672;50.834;6.286;2023-05-19T06:58:27;10.90;;;4.90;;
15142;SDS011;7672;50.834;6.286;2023-05-19T07:00:55;12.17;;;4.43;;
15142;SDS011;7672;50.834;6.286;2023-05-19T07:03:25;11.60;;;4.30;;
15142;SDS011;7672;50.834;6.286;2023-05-19T07:05:53;12.10;;;4.17;;
15142;SDS011;7672;50.834;6.286;2023-05-19T07:08:21;10.13;;;3.97;;
15142;SDS011;7672;50.834;6.286;2023-05-19T07:10:48;11.37;;;3.90;;
15142;SDS011;7672;50.834;6.286;2023-05-19T07:13:15;7.93;;;3.77;;
15142;SDS011;7672;50.834;6.286;2023-05-19T07:15:43;8.20;;;3.73;;
15142;SDS011;7672;50.834;6.286;2023-05-19T07:18:10;15.27;;;4.23;;
15142;SDS011;7672;50.834;6.286;2023-05-19T07:20:37;10.13;;;4.47;;
15142;SDS011;7672;50.834;6.286;2023-05-19T07:23:05;10.63;;;4.10;;
15142;SDS011;7672;50.834;6.286;2023-05-19T07:25:35;9.17;;;4.63;;
15142;SDS011;7672;50.834;6.286;2023-05-19T07:28:02;12.53;;;3.93;;
15142;SDS011;7672;50.834;6.286;2023-05-19T07:30:30;8.40;;;3.30;;
15142;SDS011;7672;50.834;6.286;2023-05-19T07:32:57;12.40;;;3.77;;
15142;SDS011;7672;50.834;6.286;2023-05-19T07:35:24;8.70;;;4.50;;
15142;SDS011;7672;50.834;6.286;2023-05-19T07:37:52;9.13;;;4.00;;
15142;SDS011;7672;50.834;6.286;2023-05-19T07:40:19;11.10;;;4.23;;
15142;SDS011;7672;50.834;6.286;2023-05-19T07:42:48;10.63;;;4.00;;
15142;SDS011;7672;50.834;6.286;2023-05-19T07:45:16;7.63;;;4.00;;
15142;SDS011;7672;50.834;6.286;2023-05-19T07:47:43;9.43;;;4.00;;
15142;SDS011;7672;50.834;6.286;2023-05-19T07:50:10;10.70;;;3.70;;
15142;SDS011;7672;50.834;6.286;2023-05-19T07:52:37;13.65;;;4.30;;
15142;SDS011;7672;50.834;6.286;2023-05-19T07:55:04;11.02;;;4.32;;
15142;SDS011;7672;50.834;6.286;2023-05-19T07:57:31;8.75;;;3.88;;
15142;SDS011;7672;50.834;6.286;2023-05-19T07:59:58;19.13;;;4.50;;
15142;SDS011;7672;50.834;6.286;2023-05-19T08:02:25;13.50;;;4.15;;
15142;SDS011;7672;50.834;6.286;2023-05-19T08:04:53;9.25;;;4.38;;
15142;SDS011;7672;50.834;6.286;2023-05-19T08:07:20;10.13;;;4.18;;
15142;SDS011;7672;50.834;6.286;2023-05-19T08:09:47;9.68;;;4.32;;
15142;SDS011;7672;50.834;6.286;2023-05-19T08:12:14;12.18;;;4.35;;
15142;SDS011;7672;50.834;6.286;2023-05-19T08:14:41;15.25;;;4.50;;
15142;SDS011;7672;50.834;6.286;2023-05-19T08:17:08;10.10;;;4.95;;
15142;SDS011;7672;50.834;6.286;2023-05-19T08:19:35;10.20;;;3.60;;
15142;SDS011;7672;50.834;6.286;2023-05-19T08:22:02;9.80;;;4.22;;
15142;SDS011;7672;50.834;6.286;2023-05-19T08:24:29;7.80;;;3.63;;
15142;SDS011;7672;50.834;6.286;2023-05-19T08:26:59;5.32;;;3.47;;
15142;SDS011;7672;50.834;6.286;2023-05-19T08:29:26;6.75;;;4.00;;
15142;SDS011;7672;50.834;6.286;2023-05-19T08:31:53;11.35;;;4.00;;
15142;SDS011;7672;50.834;6.286;2023-05-19T08:34:20;9.23;;;3.78;;
15142;SDS011;7672;50.834;6.286;2023-05-19T08:36:47;8.63;;;3.88;;
15142;SDS011;7672;50.834;6.286;2023-05-19T08:39:14;6.72;;;3.90;;
15142;SDS011;7672;50.834;6.286;2023-05-19T08:41:43;6.78;;;3.88;;
15142;SDS011;7672;50.834;6.286;2023-05-19T08:44:10;7.35;;;4.00;;
15142;SDS011;7672;50.834;6.286;2023-05-19T08:46:37;8.20;;;3.92;;
15142;SDS011;7672;50.834;6.286;2023-05-19T08:49:07;11.20;;;4.30;;
15142;SDS011;7672;50.834;6.286;2023-05-19T08:51:45;10.18;;;3.50;;
15142;SDS011;7672;50.834;6.286;2023-05-19T08:54:27;8.93;;;3.88;;
15142;SDS011;7672;50.834;6.286;2023-05-19T08:57:03;9.23;;;4.20;;
15142;SDS011;7672;50.834;6.286;2023-05-19T08:59:31;12.02;;;4.70;;
15142;SDS011;7672;50.834;6.286;2023-05-19T09:02:00;10.18;;;3.50;;
15142;SDS011;7672;50.834;6.286;2023-05-19T09:04:29;9.20;;;3.63;;
15142;SDS011;7672;50.834;6.286;2023-05-19T09:06:57;9.13;;;3.40;;
15142;SDS011;7672;50.834;6.286;2023-05-19T09:09:29;12.88;;;4.72;;
15142;SDS011;7672;50.834;6.286;2023-05-19T09:11:56;11.70;;;3.50;;
15142;SDS011;7672;50.834;6.286;2023-05-19T09:14:23;7.80;;;3.78;;
15142;SDS011;7672;50.834;6.286;2023-05-19T09:16:51;11.07;;;3.85;;
15142;SDS011;7672;50.834;6.286;2023-05-19T09:19:19;5.80;;;3.38;;
15142;SDS011;7672;50.834;6.286;2023-05-19T09:21:49;6.70;;;4.32;;
15142;SDS011;7672;50.834;6.286;2023-05-19T09:24:30;5.60;;;3.20;;
15142;SDS011;7672;50.834;6.286;2023-05-19T09:26:59;5.82;;;3.30;;
15142;SDS011;7672;50.834;6.286;2023-05-19T09:29:27;7.40;;;3.45;;
15142;SDS011;7672;50.834;6.286;2023-05-19T09:31:54;7.43;;;3.10;;
15142;SDS011;7672;50.834;6.286;2023-05-19T09:34:26;6.80;;;3.83;;
15142;SDS011;7672;50.834;6.286;2023-05-19T09:36:53;9.43;;;4.03;;
15142;SDS011;7672;50.834;6.286;2023-05-19T09:39:21;6.72;;;3.53;;
15142;SDS011;7672;50.834;6.286;2023-05-19T09:41:52;10.63;;;3.25;;
15142;SDS011;7672;50.834;6.286;2023-05-19T09:44:21;8.35;;;3.38;;
15142;SDS011;7672;50.834;6.286;2023-05-19T09:46:54;6.78;;;3.03;;
15142;SDS011;7672;50.834;6.286;2023-05-19T09:49:25;6.43;;;3.33;;
15142;SDS011;7672;50.834;6.286;2023-05-19T09:51:55;5.60;;;2.92;;
15142;SDS011;7672;50.834;6.286;2023-05-19T09:54:25;5.43;;;3.08;;
15142;SDS011;7672;50.834;6.286;2023-05-19T09:59:26;6.85;;;2.97;;
15142;SDS011;7672;50.834;6.286;2023-05-19T10:01:59;7.35;;;3.08;;
15142;SDS011;7672;50.834;6.286;2023-05-19T10:04:27;5.03;;;2.50;;
15142;SDS011;7672;50.834;6.286;2023-05-19T10:06:57;5.72;;;2.83;;
15142;SDS011;7672;50.834;6.286;2023-05-19T10:09:26;5.18;;;2.80;;
15142;SDS011;7672;50.834;6.286;2023-05-19T10:11:55;4.40;;;2.85;;
15142;SDS011;7672;50.834;6.286;2023-05-19T10:14:24;7.85;;;3.05;;
15142;SDS011;7672;50.834;6.286;2023-05-19T10:16:54;6.07;;;2.97;;
15142;SDS011;7672;50.834;6.286;2023-05-19T10:19:24;4.68;;;3.22;;
15142;SDS011;7672;50.834;6.286;2023-05-19T10:21:53;7.78;;;3.55;;
15142;SDS011;7672;50.834;6.286;2023-05-19T10:24:21;7.43;;;3.17;;
15142;SDS011;7672;50.834;6.286;2023-05-19T10:27:02;7.55;;;3.22;;
15142;SDS011;7672;50.834;6.286;2023-05-19T10:29:38;10.55;;;3.08;;
15142;SDS011;7672;50.834;6.286;2023-05-19T10:32:15;6.45;;;2.90;;
15142;SDS011;7672;50.834;6.286;2023-05-19T10:38:41;9.02;;;3.50;;
15142;SDS011;7672;50.834;6.286;2023-05-19T10:44:42;6.00;;;2.50;;
15142;SDS011;7672;50.834;6.286;2023-05-19T10:47:40;11.90;;;3.38;;
15142;SDS011;7672;50.834;6.286;2023-05-19T10:50:08;7.50;;;3.20;;
15142;SDS011;7672;50.834;6.286;2023-05-19T10:52:36;6.63;;;3.35;;
15142;SDS011;7672;50.834;6.286;2023-05-19T10:55:08;6.57;;;3.10;;
15142;SDS011;7672;50.834;6.286;2023-05-19T10:57:52;5.07;;;3.00;;
15142;SDS011;7672;50.834;6.286;2023-05-19T11:00:28;8.98;;;3.63;;
15142;SDS011;7672;50.834;6.286;2023-05-19T11:05:39;7.78;;;3.35;;
15142;SDS011;7672;50.834;6.286;2023-05-19T11:08:10;5.88;;;3.40;;
15142;SDS011;7672;50.834;6.286;2023-05-19T11:10:38;6.40;;;3.65;;
15142;SDS011;7672;50.834;6.286;2023-05-19T11:13:17;7.50;;;3.90;;
15142;SDS011;7672;50.834;6.286;2023-05-19T11:15:48;7.03;;;3.42;;
15142;SDS011;7672;50.834;6.286;2023-05-19T11:18:15;5.95;;;2.92;;
15142;SDS011;7672;50.834;6.286;2023-05-19T11:20:44;5.95;;;3.60;;
15142;SDS011;7672;50.834;6.286;2023-05-19T11:23:26;5.43;;;3.55;;
15142;SDS011;7672;50.834;6.286;2023-05-19T11:25:53;6.28;;;2.97;;
15142;SDS011;7672;50.834;6.286;2023-05-19T11:28:20;5.97;;;3.47;;
15142;SDS011;7672;50.834;6.286;2023-05-19T11:30:55;5.88;;;3.35;;
15142;SDS011;7672;50.834;6.286;2023-05-19T11:33:24;5.93;;;3.38;;
15142;SDS011;7672;50.834;6.286;2023-05-19T11:35:54;5.93;;;3.22;;
15142;SDS011;7672;50.834;6.286;2023-05-19T11:38:26;6.80;;;3.50;;
15142;SDS011;7672;50.834;6.286;2023-05-19T11:40:55;8.68;;;3.40;;
15142;SDS011;7672;50.834;6.286;2023-05-19T11:43:23;7.72;;;3.50;;
15142;SDS011;7672;50.834;6.286;2023-05-19T11:45:54;6.15;;;3.22;;
15142;SDS011;7672;50.834;6.286;2023-05-19T11:48:21;8.48;;;3.22;;
15142;SDS011;7672;50.834;6.286;2023-05-19T11:50:50;8.10;;;3.70;;
15142;SDS011;7672;50.834;6.286;2023-05-19T11:53:17;5.97;;;3.20;;
15142;SDS011;7672;50.834;6.286;2023-05-19T11:55:45;7.63;;;3.30;;
15142;SDS011;7672;50.834;6.286;2023-05-19T11:58:14;11.80;;;3.55;;
15142;SDS011;7672;50.834;6.286;2023-05-19T12:00:43;4.78;;;2.60;;
15142;SDS011;7672;50.834;6.286;2023-05-19T12:03:13;4.72;;;2.72;;
15142;SDS011;7672;50.834;6.286;2023-05-19T12:05:44;7.55;;;3.20;;
15142;SDS011;7672;50.834;6.286;2023-05-19T12:08:17;4.00;;;2.67;;
15142;SDS011;7672;50.834;6.286;2023-05-19T12:10:48;6.70;;;2.65;;
15142;SDS011;7672;50.834;6.286;2023-05-19T12:13:16;11.15;;;2.70;;
15142;SDS011;7672;50.834;6.286;2023-05-19T12:15:44;8.05;;;2.65;;
15142;SDS011;7672;50.834;6.286;2023-05-19T12:18:11;6.50;;;2.53;;
15142;SDS011;7672;50.834;6.286;2023-05-19T12:20:38;6.28;;;2.53;;
15142;SDS011;7672;50.834;6.286;2023-05-19T12:23:05;3.42;;;2.35;;
15142;SDS011;7672;50.834;6.286;2023-05-19T12:25:33;10.05;;;2.75;;
15142;SDS011;7672;50.834;6.286;2023-05-19T12:28:01;7.05;;;2.53;;
15142;SDS011;7672;50.834;6.286;2023-05-19T12:30:29;6.20;;;3.03;;
15142;SDS011;7672;50.834;6.286;2023-05-19T12:33:00;6.43;;;2.60;;
15142;SDS011;7672;50.834;6.286;2023-05-19T12:35:31;6.88;;;2.35;;
15142;SDS011;7672;50.834;6.286;2023-05-19T12:38:10;5.97;;;2.90;;
15142;SDS011;7672;50.834;6.286;2023-05-19T12:40:39;10.38;;;3.33;;
15142;SDS011;7672;50.834;6.286;2023-05-19T12:43:17;7.07;;;3.15;;
15142;SDS011;7672;50.834;6.286;2023-05-19T12:45:48;6.40;;;2.78;;
15142;SDS011;7672;50.834;6.286;2023-05-19T12:48:15;4.88;;;2.80;;
15142;SDS011;7672;50.834;6.286;2023-05-19T12:50:43;9.73;;;3.03;;
15142;SDS011;7672;50.834;6.286;2023-05-19T12:53:10;5.05;;;2.30;;
15142;SDS011;7672;50.834;6.286;2023-05-19T12:55:39;5.38;;;2.38;;
15142;SDS011;7672;50.834;6.286;2023-05-19T12:58:10;7.13;;;2.85;;
15142;SDS011;7672;50.834;6.286;2023-05-19T13:00:41;5.85;;;2.30;;
15142;SDS011;7672;50.834;6.286;2023-05-19T13:03:16;5.05;;;2.53;;
15142;SDS011;7672;50.834;6.286;2023-05-19T13:05:46;6.45;;;2.80;;
15142;SDS011;7672;50.834;6.286;2023-05-19T13:08:19;7.88;;;2.92;;
15142;SDS011;7672;50.834;6.286;2023-05-19T13:10:49;4.63;;;2.80;;
15142;SDS011;7672;50.834;6.286;2023-05-19T13:13:36;7.22;;;2.90;;
15142;SDS011;7672;50.834;6.286;2023-05-19T13:16:21;7.28;;;2.83;;
15142;SDS011;7672;50.834;6.286;2023-05-19T13:19:07;7.32;;;2.90;;
15142;SDS011;7672;50.834;6.286;2023-05-19T13:21:50;6.22;;;2.85;;
15142;SDS011;7672;50.834;6.286;2023-05-19T13:24:17;4.28;;;2.28;;
15142;SDS011;7672;50.834;6.286;2023-05-19T13:26:44;7.07;;;2.92;;
15142;SDS011;7672;50.834;6.286;2023-05-19T13:29:11;6.10;;;2.58;;
15142;SDS011;7672;50.834;6.286;2023-05-19T13:31:38;6.78;;;3.10;;
15142;SDS011;7672;50.834;6.286;2023-05-19T13:34:05;5.68;;;3.00;;
15142;SDS011;7672;50.834;6.286;2023-05-19T13:36:33;5.93;;;2.70;;
15142;SDS011;7672;50.834;6.286;2023-05-19T13:39:00;6.55;;;3.15;;
15142;SDS011;7672;50.834;6.286;2023-05-19T13:41:27;7.15;;;2.90;;
15142;SDS011;7672;50.834;6.286;2023-05-19T13:43:58;8.35;;;2.78;;
15142;SDS011;7672;50.834;6.286;2023-05-19T13:46:25;4.45;;;2.47;;
15142;SDS011;7672;50.834;6.286;2023-05-19T13:49:09;10.00;;;2.97;;
15142;SDS011;7672;50.834;6.286;2023-05-19T13:51:38;4.35;;;2.50;;
15142;SDS011;7672;50.834;6.286;2023-05-19T13:54:08;8.20;;;2.65;;
15142;SDS011;7672;50.834;6.286;2023-05-19T13:56:35;8.77;;;3.03;;
15142;SDS011;7672;50.834;6.286;2023-05-19T13:59:02;10.88;;;2.90;;
15142;SDS011;7672;50.834;6.286;2023-05-19T14:01:30;6.88;;;3.17;;
15142;SDS011;7672;50.834;6.286;2023-05-19T14:03:57;6.53;;;3.17;;
15142;SDS011;7672;50.834;6.286;2023-05-19T14:06:28;4.75;;;2.85;;
15142;SDS011;7672;50.834;6.286;2023-05-19T14:08:55;7.80;;;3.20;;
15142;SDS011;7672;50.834;6.286;2023-05-19T14:11:23;6.70;;;2.75;;
15142;SDS011;7672;50.834;6.286;2023-05-19T14:13:50;7.57;;;2.83;;
15142;SDS011;7672;50.834;6.286;2023-05-19T14:16:18;4.38;;;2.50;;
15142;SDS011;7672;50.834;6.286;2023-05-19T14:18:47;4.78;;;2.65;;
15142;SDS011;7672;50.834;6.286;2023-05-19T14:21:15;6.72;;;2.80;;
15142;SDS011;7672;50.834;6.286;2023-05-19T14:23:42;6.30;;;2.72;;
15142;SDS011;7672;50.834;6.286;2023-05-19T14:26:11;5.82;;;2.55;;
15142;SDS011;7672;50.834;6.286;2023-05-19T14:28:38;5.75;;;2.95;;
15142;SDS011;7672;50.834;6.286;2023-05-19T14:31:12;5.40;;;2.78;;
15142;SDS011;7672;50.834;6.286;2023-05-19T14:33:40;5.47;;;2.85;;
15142;SDS011;7672;50.834;6.286;2023-05-19T14:36:08;8.00;;;2.80;;
15142;SDS011;7672;50.834;6.286;2023-05-19T14:38:37;5.32;;;2.55;;
15142;SDS011;7672;50.834;6.286;2023-05-19T14:41:05;5.43;;;2.42;;
15142;SDS011;7672;50.834;6.286;2023-05-19T14:43:32;7.68;;;2.90;;
15142;SDS011;7672;50.834;6.286;2023-05-19T14:45:59;4.47;;;2.75;;
15142;SDS011;7672;50.834;6.286;2023-05-19T14:48:26;5.97;;;2.50;;
15142;SDS011;7672;50.834;6.286;2023-05-19T14:50:53;8.48;;;2.80;;
15142;SDS011;7672;50.834;6.286;2023-05-19T14:53:20;4.95;;;2.50;;
15142;SDS011;7672;50.834;6.286;2023-05-19T14:55:47;4.93;;;2.65;;
15142;SDS011;7672;50.834;6.286;2023-05-19T14:58:15;5.25;;;2.80;;
15142;SDS011;7672;50.834;6.286;2023-05-19T15:00:56;6.07;;;2.70;;
15142;SDS011;7672;50.834;6.286;2023-05-19T15:03:24;6.13;;;2.88;;
15142;SDS011;7672;50.834;6.286;2023-05-19T15:05:51;8.45;;;2.50;;
15142;SDS011;7672;50.834;6.286;2023-05-19T15:08:18;5.40;;;2.63;;
15142;SDS011;7672;50.834;6.286;2023-05-19T15:10:48;6.95;;;2.90;;
15142;SDS011;7672;50.834;6.286;2023-05-19T15:13:16;5.57;;;3.13;;
15142;SDS011;7672;50.834;6.286;2023-05-19T15:15:44;6.38;;;2.70;;
15142;SDS011;7672;50.834;6.286;2023-05-19T15:18:13;9.70;;;2.72;;
15142;SDS011;7672;50.834;6.286;2023-05-19T15:20:43;6.80;;;2.80;;
15142;SDS011;7672;50.834;6.286;2023-05-19T15:23:11;7.15;;;3.08;;
15142;SDS011;7672;50.834;6.286;2023-05-19T15:25:39;4.82;;;2.88;;
15142;SDS011;7672;50.834;6.286;2023-05-19T15:28:06;5.72;;;2.53;;
15142;SDS011;7672;50.834;6.286;2023-05-19T15:30:33;3.42;;;2.58;;
15142;SDS011;7672;50.834;6.286;2023-05-19T15:33:01;6.38;;;2.65;;
15142;SDS011;7672;50.834;6.286;2023-05-19T15:35:28;7.88;;;2.75;;
15142;SDS011;7672;50.834;6.286;2023-05-19T15:37:55;6.50;;;2.60;;
15142;SDS011;7672;50.834;6.286;2023-05-19T15:40:22;7.43;;;2.22;;
15142;SDS011;7672;50.834;6.286;2023-05-19T15:42:49;5.20;;;2.30;;